createdAt,value
2018-12-06T00:00:14.387Z,988.1
2018-12-06T00:03:44.520Z,988.51
2018-12-06T00:07:14.601Z,987.99
2018-12-06T00:10:44.645Z,988.39
2018-12-06T00:14:14.648Z,987.86
2018-12-06T00:17:44.747Z,987.63
2018-12-06T00:21:14.873Z,987.11
2018-12-06T00:24:45.012Z,987.47
2018-12-06T00:28:15.146Z,987.47
2018-12-06T00:31:45.169Z,987.8
2018-12-06T00:35:15.208Z,987.09
2018-12-06T00:38:45.310Z,986.99
2018-12-06T00:42:15.422Z,987.31
2018-12-06T00:45:45.443Z,987.82
2018-12-06T00:49:15.436Z,987.59
2018-12-06T00:52:45.407Z,987.76
2018-12-06T00:56:15.440Z,987.72
2018-12-06T00:59:45.391Z,987.88
2018-12-06T01:03:15.523Z,987.9
2018-12-06T01:06:45.665Z,988.09
2018-12-06T01:10:15.865Z,987.81
2018-12-06T01:13:46.010Z,987.81
2018-12-06T01:17:16.071Z,988.3
2018-12-06T01:20:46.064Z,988.43
2018-12-06T01:24:16.096Z,988.4
2018-12-06T01:27:46.149Z,988.79
2018-12-06T01:31:16.270Z,988.92
2018-12-06T01:34:46.353Z,989.26
2018-12-06T01:38:16.497Z,989.14
2018-12-06T01:41:46.576Z,989.22
2018-12-06T01:45:16.728Z,989.21
2018-12-06T01:48:46.871Z,989.45
2018-12-06T01:52:17.242Z,989.38
2018-12-06T01:55:47.299Z,988.74
2018-12-06T01:59:17.476Z,988.69
2018-12-06T02:00:14.166Z,988.25
2018-12-06T02:03:44.305Z,988.65
2018-12-06T02:07:14.628Z,988.52
2018-12-06T02:10:44.701Z,987.92
2018-12-06T02:14:14.782Z,988.08
2018-12-06T02:17:44.844Z,987.96
2018-12-06T02:21:14.936Z,987.34
2018-12-06T02:24:44.948Z,987.69
2018-12-06T02:28:15.010Z,987.33
2018-12-06T02:31:45.002Z,987.23
2018-12-06T02:35:15.245Z,986.82
2018-12-06T02:38:45.386Z,987.01
2018-12-06T02:42:15.631Z,987
2018-12-06T02:45:45.580Z,986.54
2018-12-06T02:49:15.633Z,986.9
2018-12-06T02:52:45.664Z,986.68
2018-12-06T02:56:15.816Z,986.98
2018-12-06T02:59:45.918Z,986.94
2018-12-06T03:03:15.979Z,987.02
2018-12-06T03:06:45.952Z,986.69
2018-12-06T03:10:16.177Z,986.44
2018-12-06T03:13:46.306Z,986.52
2018-12-06T03:17:16.359Z,986.62
2018-12-06T03:20:46.419Z,986.47
2018-12-06T03:24:16.643Z,986.61
2018-12-06T03:27:46.850Z,986.57
2018-12-06T03:31:17.080Z,986.63
2018-12-06T03:34:47.140Z,986.65
2018-12-06T03:38:17.282Z,986.48
2018-12-06T03:41:47.373Z,986.65
2018-12-06T03:45:17.577Z,985.95
2018-12-06T03:48:47.678Z,986.38
2018-12-06T03:52:17.782Z,986.41
2018-12-06T03:55:47.772Z,986.28
2018-12-06T03:59:17.934Z,986.02
2018-12-06T04:00:14.033Z,986.26
2018-12-06T04:03:44.094Z,986.26
2018-12-06T04:07:14.206Z,985.74
2018-12-06T04:10:44.448Z,986.01
2018-12-06T04:14:14.530Z,985.35
2018-12-06T04:17:44.672Z,985.65
2018-12-06T04:21:14.724Z,985.55
2018-12-06T04:24:44.707Z,985.05
2018-12-06T04:28:14.963Z,985.1
2018-12-06T04:31:45.095Z,984.73
2018-12-06T04:35:15.154Z,984.81
2018-12-06T04:38:45.245Z,984.83
2018-12-06T04:42:15.317Z,985.18
2018-12-06T04:45:45.299Z,984.44
2018-12-06T04:49:15.362Z,984.39
2018-12-06T04:52:45.345Z,984.27
2018-12-06T04:56:15.436Z,984.52
2018-12-06T04:59:45.500Z,984.44
2018-12-06T05:03:15.503Z,984.38
2018-12-06T05:06:45.542Z,984.3
2018-12-06T05:10:15.594Z,984.27
2018-12-06T05:13:45.784Z,983.99
2018-12-06T05:17:15.858Z,983.83
2018-12-06T05:20:45.970Z,983.39
2018-12-06T05:24:16.042Z,983.64
2018-12-06T05:27:46.174Z,983.72
2018-12-06T05:31:16.216Z,983.32
2018-12-06T05:34:46.308Z,983.64
2018-12-06T05:38:16.392Z,983.82
2018-12-06T05:41:46.392Z,983.66
2018-12-06T05:45:16.454Z,983.92
2018-12-06T05:48:46.477Z,983.66
2018-12-06T05:52:16.698Z,983.37
2018-12-06T05:55:46.750Z,983.85
2018-12-06T05:59:16.945Z,984.11
2018-12-06T06:00:13.350Z,984.18
2018-12-06T06:03:43.622Z,984.43
2018-12-06T06:07:13.684Z,984.48
2018-12-06T06:10:43.645Z,984.89
2018-12-06T06:14:13.818Z,985.12
2018-12-06T06:17:43.907Z,985.03
2018-12-06T06:21:13.945Z,984.85
2018-12-06T06:24:43.953Z,985.31
2018-12-06T06:28:14.166Z,985.23
2018-12-06T06:31:44.128Z,985.06
2018-12-06T06:35:14.199Z,986.04
2018-12-06T06:38:44.204Z,986.25
2018-12-06T06:42:14.254Z,986.81
2018-12-06T06:45:44.355Z,986.92
2018-12-06T06:49:14.427Z,987.71
2018-12-06T06:52:44.452Z,987.62
2018-12-06T06:56:14.602Z,987.3
2018-12-06T06:59:44.714Z,988.39
2018-12-06T07:03:14.877Z,988.88
2018-12-06T07:06:44.938Z,989.06
2018-12-06T07:10:15.211Z,989.6
2018-12-06T07:13:45.333Z,989.43
2018-12-06T07:17:15.656Z,989.59
2018-12-06T07:20:45.657Z,989.73
2018-12-06T07:24:15.769Z,990.19
2018-12-06T07:27:45.742Z,990.58
2018-12-06T07:31:15.794Z,991.11
2018-12-06T07:34:45.861Z,990.93
2018-12-06T07:38:16.008Z,990.54
2018-12-06T07:41:46.081Z,990.72
2018-12-06T07:45:16.184Z,990.58
2018-12-06T07:48:46.104Z,991.35
2018-12-06T07:52:16.216Z,991.88
2018-12-06T07:55:46.418Z,991.81
2018-12-06T07:59:16.534Z,992.33
2018-12-06T08:00:13.190Z,992.56
2018-12-06T08:03:43.161Z,993.16
2018-12-06T08:07:13.164Z,993.15
2018-12-06T08:10:43.214Z,992.61
2018-12-06T08:14:13.357Z,993.62
2018-12-06T08:17:43.509Z,994.69
2018-12-06T08:21:13.684Z,994.54
2018-12-06T08:24:43.703Z,994.3
2018-12-06T08:28:13.801Z,994.37
2018-12-06T08:31:43.947Z,994.63
2018-12-06T08:35:13.969Z,993.85
2018-12-06T08:38:44.002Z,994.77
2018-12-06T08:42:14.053Z,995.75
2018-12-06T08:45:44.156Z,995.97
2018-12-06T08:49:14.198Z,995.72
2018-12-06T08:52:44.240Z,995.94
2018-12-06T08:56:14.312Z,995.67
2018-12-06T08:59:44.344Z,996.39
2018-12-06T09:03:14.356Z,996.53
2018-12-06T09:06:44.501Z,996.6
2018-12-06T09:10:14.570Z,997.16
2018-12-06T09:13:44.645Z,996.8
2018-12-06T09:17:14.655Z,998.08
2018-12-06T09:20:44.897Z,997.9
2018-12-06T09:24:14.931Z,997.55
2018-12-06T09:27:44.873Z,997.55
2018-12-06T09:31:15.045Z,997.99
2018-12-06T09:34:45.075Z,996.91
2018-12-06T09:38:15.160Z,998.31
2018-12-06T09:41:45.290Z,998.59
2018-12-06T09:45:15.334Z,999.4
2018-12-06T09:48:45.335Z,1000.39
2018-12-06T09:52:15.477Z,1001.47
2018-12-06T09:55:45.479Z,1001.35
2018-12-06T09:59:15.421Z,1002.01
2018-12-06T10:00:14.789Z,1001.74
2018-12-06T10:03:44.792Z,1001.16
2018-12-06T10:07:14.934Z,1002.07
2018-12-06T10:10:44.988Z,1001.73
2018-12-06T10:14:15.028Z,999.96
2018-12-06T10:17:45.061Z,999.19
2018-12-06T10:21:15.371Z,1001.26
2018-12-06T10:24:45.415Z,1002.27
2018-12-06T10:28:15.417Z,1004.43
2018-12-06T10:31:45.359Z,1005.54
2018-12-06T10:35:15.401Z,1006.05
2018-12-06T10:38:45.402Z,1004.27
2018-12-06T10:42:15.506Z,1003.17
2018-12-06T10:45:45.618Z,1003.12
2018-12-06T10:49:15.711Z,1003.52
2018-12-06T10:52:45.733Z,1005.97
2018-12-06T10:56:15.936Z,1006.58
2018-12-06T10:59:45.997Z,1010.28
2018-12-06T11:03:28.910Z,1011.12
2018-12-06T11:06:59.004Z,1008.48
2018-12-06T11:10:29.124Z,1006.58
2018-12-06T11:13:59.226Z,1006.49
2018-12-06T11:17:29.288Z,1007.42
2018-12-06T11:20:59.361Z,1009.58
2018-12-06T11:24:29.883Z,1011.93
2018-12-06T11:27:59.986Z,1008.89
2018-12-06T11:31:30.128Z,1011.56
2018-12-06T11:35:00.146Z,1009.44
2018-12-06T11:38:30.269Z,1011.42
2018-12-06T11:42:00.265Z,1012.15
2018-12-06T11:45:30.357Z,1013.6
2018-12-06T11:49:00.350Z,1011.63
2018-12-06T11:52:30.422Z,1008.28
2018-12-06T11:56:00.504Z,1004.79
2018-12-06T11:59:30.607Z,1001.41
2018-12-06T12:00:12.951Z,1001.96
2018-12-06T12:03:43.018Z,1003.5
2018-12-06T12:07:13.170Z,1006.33
2018-12-06T12:10:43.202Z,1009.11
2018-12-06T12:14:13.280Z,1008.59
2018-12-06T12:17:43.347Z,1007.86
2018-12-06T12:21:13.479Z,1002.57
2018-12-06T12:24:43.834Z,999.89
2018-12-06T12:28:14.016Z,999.39
2018-12-06T12:31:44.196Z,998.65
2018-12-06T12:35:14.270Z,1000.14
2018-12-06T12:38:44.335Z,1000.76
2018-12-06T12:42:14.772Z,1000.88
2018-12-06T12:45:44.844Z,1000.56
2018-12-06T12:49:14.896Z,1000.18
2018-12-06T12:52:44.968Z,1000.87
2018-12-06T12:56:15.110Z,999.74
2018-12-06T12:59:45.092Z,1000.07
2018-12-06T13:03:15.225Z,999.19
2018-12-06T13:06:45.308Z,998.52
2018-12-06T13:10:15.450Z,998.03
2018-12-06T13:13:45.601Z,999.5
2018-12-06T13:17:15.764Z,999.43
2018-12-06T13:20:45.846Z,1000.37
2018-12-06T13:24:15.999Z,1001.38
2018-12-06T13:27:46.081Z,1001.81
2018-12-06T13:31:16.172Z,1001.89
2018-12-06T13:34:46.227Z,1002.09
2018-12-06T13:38:16.298Z,1001.49
2018-12-06T13:41:46.350Z,1000.57
2018-12-06T13:45:16.452Z,1000.51
2018-12-06T13:48:46.507Z,1000.37
2018-12-06T13:52:16.586Z,999.83
2018-12-06T13:55:46.589Z,997.65
2018-12-06T13:59:16.705Z,997.03
2018-12-06T14:00:12.739Z,996.77
2018-12-06T14:03:42.811Z,995.06
2018-12-06T14:07:12.952Z,994.02
2018-12-06T14:10:43.005Z,993.42
2018-12-06T14:14:13.107Z,993.37
2018-12-06T14:17:43.289Z,993.09
2018-12-06T14:21:13.413Z,993.3
2018-12-06T14:24:43.494Z,992.81
2018-12-06T14:28:13.766Z,991.97
2018-12-06T14:31:43.689Z,992.1
2018-12-06T14:35:13.850Z,991.73
2018-12-06T14:38:43.953Z,991.21
2018-12-06T14:42:14.185Z,990.56
2018-12-06T14:45:44.390Z,989.53
2018-12-06T14:49:14.499Z,990
2018-12-06T14:52:44.581Z,989.78
2018-12-06T14:56:14.703Z,989.47
2018-12-06T14:59:44.765Z,988.84
2018-12-06T15:03:14.788Z,988.66
2018-12-06T15:06:44.880Z,987.77
2018-12-06T15:10:15.142Z,987.71
2018-12-06T15:13:45.254Z,987.64
2018-12-06T15:17:15.378Z,987.33
2018-12-06T15:20:45.668Z,987.29
2018-12-06T15:24:15.750Z,987.54
2018-12-06T15:27:45.932Z,987.33
2018-12-06T15:31:16.364Z,986.74
2018-12-06T15:34:46.656Z,986.67
2018-12-06T15:38:16.881Z,986.53
2018-12-06T15:41:46.990Z,985.87
2018-12-06T15:45:17.082Z,985.06
2018-12-06T15:48:47.185Z,984.44
2018-12-06T15:52:17.317Z,984.26
2018-12-06T15:55:47.399Z,984.04
2018-12-06T15:59:17.478Z,983.9
2018-12-06T16:00:12.579Z,983.96
2018-12-06T16:03:42.690Z,983.16
2018-12-06T16:07:12.786Z,983.12
2018-12-06T16:10:42.865Z,982.96
2018-12-06T16:14:12.886Z,983.25
2018-12-06T16:17:42.958Z,982.82
2018-12-06T16:21:13.030Z,983.44
2018-12-06T16:24:43.172Z,983.25
2018-12-06T16:28:13.374Z,983.31
2018-12-06T16:31:43.687Z,982.81
2018-12-06T16:35:13.788Z,982.67
2018-12-06T16:38:43.850Z,982.12
2018-12-06T16:42:13.923Z,982.01
2018-12-06T16:45:44.094Z,982.17
2018-12-06T16:49:14.167Z,982.08
2018-12-06T16:52:44.258Z,982.19
2018-12-06T16:56:14.321Z,981.97
2018-12-06T16:59:44.366Z,981.93
2018-12-06T17:03:14.391Z,981.88
2018-12-06T17:06:44.444Z,981.81
2018-12-06T17:10:14.588Z,981.66
2018-12-06T17:13:44.520Z,981.02
2018-12-06T17:17:14.593Z,980.55
2018-12-06T17:20:44.614Z,981.21
2018-12-06T17:24:14.807Z,981.29
2018-12-06T17:27:44.918Z,981.58
2018-12-06T17:31:15.021Z,981.37
2018-12-06T17:34:45.262Z,981.34
2018-12-06T17:38:15.335Z,981.52
2018-12-06T17:41:45.357Z,981.59
2018-12-06T17:45:15.528Z,980.74
2018-12-06T17:48:45.470Z,980.3
2018-12-06T17:52:15.523Z,980.18
2018-12-06T17:55:52.176Z,979.82
2018-12-06T17:59:22.320Z,979.84
2018-12-06T18:00:12.344Z,979.71
2018-12-06T18:03:42.436Z,979.66
2018-12-06T18:07:12.510Z,979.85
2018-12-06T18:10:42.741Z,979.83
2018-12-06T18:14:12.852Z,979.39
2018-12-06T18:17:42.983Z,979.02
2018-12-06T18:21:13.087Z,978.93
2018-12-06T18:24:43.161Z,978.91
2018-12-06T18:28:13.290Z,979.11
2018-12-06T18:31:43.415Z,978.65
2018-12-06T18:35:13.766Z,978.37
2018-12-06T18:38:43.966Z,978.19
2018-12-06T18:42:14.098Z,978.17
2018-12-06T18:45:44.170Z,978.23
2018-12-06T18:49:14.122Z,978.12
2018-12-06T18:52:44.154Z,978.09
2018-12-06T18:56:14.556Z,978.15
2018-12-06T18:59:44.738Z,978.46
2018-12-06T19:03:14.889Z,979.05
2018-12-06T19:06:44.942Z,979.2
2018-12-06T19:10:15.057Z,979.57
2018-12-06T19:13:45.091Z,979.6
2018-12-06T19:17:15.098Z,979.47
2018-12-06T19:20:45.070Z,979.26
2018-12-06T19:24:15.153Z,978.85
2018-12-06T19:27:45.204Z,978.64
2018-12-06T19:31:15.296Z,978.51
2018-12-06T19:34:45.438Z,978.36
2018-12-06T19:38:15.670Z,978.17
2018-12-06T19:41:45.792Z,977.86
2018-12-06T19:45:15.839Z,977.64
2018-12-06T19:48:45.906Z,977.92
2018-12-06T19:52:16.057Z,978.13
2018-12-06T19:55:46.159Z,978.18
2018-12-06T19:59:16.222Z,978.57
2018-12-06T20:00:12.570Z,978.7
2018-12-06T20:03:42.621Z,979.11
2018-12-06T20:07:12.714Z,979.06
2018-12-06T20:10:42.756Z,979.07
2018-12-06T20:14:12.818Z,979.13
2018-12-06T20:17:42.809Z,979.31
2018-12-06T20:21:13.029Z,979.09
2018-12-06T20:24:43.043Z,979.15
2018-12-06T20:28:13.065Z,979.1
2018-12-06T20:31:43.188Z,978.96
2018-12-06T20:35:13.232Z,978.93
2018-12-06T20:38:43.481Z,978.36
2018-12-06T20:42:13.673Z,978.67
2018-12-06T20:45:43.815Z,978.49
2018-12-06T20:49:13.827Z,978.28
2018-12-06T20:52:43.849Z,977.96
2018-12-06T20:56:13.871Z,977.8
2018-12-06T20:59:43.872Z,977.82
2018-12-06T21:03:13.925Z,977.57
2018-12-06T21:06:43.788Z,977.69
2018-12-06T21:10:13.779Z,977.33
2018-12-06T21:13:43.793Z,977.27
2018-12-06T21:17:13.847Z,977.27
2018-12-06T21:20:43.874Z,977.28
2018-12-06T21:24:13.880Z,977.22
2018-12-06T21:27:43.912Z,977.04
2018-12-06T21:31:14.001Z,976.77
2018-12-06T21:34:44.022Z,976.48
2018-12-06T21:38:14.429Z,976.36
2018-12-06T21:41:44.674Z,976.78
2018-12-06T21:45:14.829Z,977.11
2018-12-06T21:48:44.858Z,976.82
2018-12-06T21:52:14.954Z,976.79
2018-12-06T21:55:45.064Z,976.88
2018-12-06T21:59:15.148Z,977.06
2018-12-06T22:00:12.445Z,977.08
2018-12-06T22:03:42.536Z,977.06
2018-12-06T22:07:12.632Z,976.97
2018-12-06T22:10:42.744Z,976.54
2018-12-06T22:14:12.782Z,976.12
2018-12-06T22:17:42.744Z,975.98
2018-12-06T22:21:12.996Z,975.99
2018-12-06T22:24:43.088Z,975.72
2018-12-06T22:28:13.171Z,975.68
2018-12-06T22:31:43.288Z,975.44
2018-12-06T22:35:13.381Z,975.54
2018-12-06T22:38:43.396Z,975.16
2018-12-06T22:42:13.758Z,975.37
2018-12-06T22:45:54.159Z,975.43
2018-12-06T22:49:24.323Z,975.4
2018-12-06T22:52:54.443Z,975.45
2018-12-06T22:56:24.538Z,975.49
2018-12-06T22:59:54.548Z,975.4
2018-12-06T23:03:24.739Z,975.27
2018-12-06T23:06:54.870Z,975.44
2018-12-06T23:10:25.008Z,975.24
2018-12-06T23:13:55.014Z,975.4
2018-12-06T23:17:24.993Z,975.28
2018-12-06T23:20:54.988Z,975.49
2018-12-06T23:24:24.970Z,975.26
2018-12-06T23:27:55.072Z,974.95
2018-12-06T23:31:25.214Z,975.1
2018-12-06T23:34:55.206Z,975.12
2018-12-06T23:38:25.247Z,974.94
2018-12-06T23:41:55.300Z,974.84
2018-12-06T23:45:25.682Z,975.09
2018-12-06T23:48:55.729Z,974.62
2018-12-06T23:52:25.865Z,974.92
2018-12-06T23:55:55.977Z,975.38
2018-12-06T23:59:26.079Z,975.45
